Flight Track Log - Related Links

Times and Time Zones

All times are in EDT time to prevent confusion due to time zone crossing. See the SWA158 flight status page for this flight to view local times or setup timezone preferences in your user account.

Time Position Orientation Groundspeed Altitude Reporting Facility
EDT Latitude Longitude Course Direction KTS MPH feet Rate Location/Type
Sun 10:47:24 AM 40.7758 -111.9983 215° Southwest 171 197 4,800  Level Salt Lake Center
Sun 10:48:01 AM 40.7522 -112.0206 215° Southwest 192 221 5,800 1,918 Climbing Salt Lake Center
Sun 10:49:01 AM 40.7775 -112.0942 294° West 242 278 7,900 2,611 Climbing Salt Lake Center
Sun 10:50:12 AM 40.8381 -112.1703 316° Northwest 258 297 11,500 3,113 Climbing Salt Lake Center
Sun 10:51:14 AM 40.9067 -112.1764 356° North 285 328 14,800 2,439 Climbing Salt Lake Center
Sun 10:52:15 AM 40.9397 -112.0625 69° East 349 402 16,500 1,820 Climbing Salt Lake Center
Sun 10:53:16 AM 40.9678 -111.9253 75° East 393 452 18,500 2,390 Climbing Salt Lake Center
Sun 10:54:18 AM 41.0053 -111.7575 73° East 419 482 21,400 2,585 Climbing Salt Lake Center
Sun 10:55:19 AM 41.0233 -111.6025 81° East 430 495 23,800 2,213 Climbing Salt Lake Center
Sun 10:56:20 AM 41.0414 -111.4403 82° East 447 514 25,900 1,951 Climbing Salt Lake Center
Sun 10:57:22 AM 41.0603 -111.2742 81° East 456 525 27,800 1,512 Climbing Salt Lake Center
Sun 10:58:23 AM 41.0781 -111.1033 82° East 468 539 29,000 976 Climbing Salt Lake Center
Sun 10:59:25 AM 41.0967 -110.9311 82° East 472 543 29,800 1,171 Climbing Salt Lake Center
Sun 11:00:26 AM 41.1153 -110.7547 82° East 480 552 31,400 1,721 Climbing Salt Lake Center
Sun 11:01:27 AM 41.1361 -110.5600 82° East 479 551 33,300 1,561 Climbing Salt Lake Center
Sun 11:02:29 AM 41.1528 -110.3911 82° East 482 555 34,600 1,415 Climbing Salt Lake Center
Sun 11:03:30 AM 41.1731 -110.1936 82° East 483 556 36,200 1,171 Climbing Salt Lake Center
Sun 11:04:32 AM 41.1886 -110.0253 83° East 482 555 37,000 390 Climbing Salt Lake Center
Sun 11:05:33 AM 41.2081 -109.8297 82° East 480 552 37,000  Level Salt Lake Center
Sun 11:06:35 AM 41.2239 -109.6636 83° East 477 549 37,000  Level Salt Lake Center
Sun 11:07:36 AM 41.2394 -109.4969 83° East 476 548 37,000  Level Salt Lake Center
Sun 11:08:38 AM 41.2572 -109.3047 83° East 475 547 37,000  Level Salt Lake Center
Sun 11:09:39 AM 41.2728 -109.1408 83° East 474 545 37,000  Level Salt Lake Center
Sun 11:10:41 AM 41.2906 -108.9528 83° East 468 539 37,000  Level Salt Lake Center
Sun 11:11:42 AM 41.3050 -108.7911 83° East 465 535 37,000  Level Salt Lake Center
Sun 11:12:44 AM 41.3211 -108.5997 84° East 468 539 37,000  Level Salt Lake Center
Sun 11:13:15 AM 41.3281 -108.5172 84° East 469 540 37,000  Level Denver Center
Sun 11:14:17 AM 41.3442 -108.3239 84° East 472 543 37,000  Level Denver Center
Sun 11:15:19 AM 41.3583 -108.1575 83° East 475 547 37,000  Level Denver Center
Sun 11:15:49 AM 41.3656 -108.0753 83° East 474 545 37,000  Level Salt Lake Center
Sun 11:16:50 AM 41.3814 -107.8808 84° East 474 545 37,000  Level Salt Lake Center
Sun 11:17:23 AM 41.3875 -107.7956 85° East 475 547 37,000  Level Denver Center
Sun 11:18:25 AM 41.4008 -107.6303 84° East 472 543 37,000  Level Denver Center
Sun 11:19:27 AM 41.4150 -107.4364 84° East 471 542 37,000  Level Denver Center
Sun 11:20:29 AM 41.4269 -107.2722 84° East 467 537 37,000 194 Level Denver Center
Sun 11:21:31 AM 41.4419 -107.0767 84° East 474 545 37,400 581 Climbing Denver Center
Sun 11:22:33 AM 41.4547 -106.9086 84° East 477 549 38,200 774 Climbing Denver Center
Sun 11:23:35 AM 41.4681 -106.7111 85° East 478 550 39,000 387 Climbing Denver Center
Sun 11:24:37 AM 41.4797 -106.5433 85° East 477 549 39,000  Level Denver Center
Sun 11:25:39 AM 41.4922 -106.3531 85° East 476 548 39,000  Level Denver Center
Sun 11:26:41 AM 41.5033 -106.1881 85° East 470 541 39,000  Level Denver Center
Sun 11:27:43 AM 41.5147 -105.9925 85° East 473 544 39,000  Level Denver Center
Sun 11:28:45 AM 41.5250 -105.8264 85° East 472 543 39,000  Level Denver Center
Sun 11:29:46 AM 41.5342 -105.6625 86° East 466 536 39,000  Level Denver Center
Sun 11:30:48 AM 41.5461 -105.4694 85° East 467 537 39,000  Level Denver Center
Sun 11:31:50 AM 41.5569 -105.2764 86° East 468 539 39,000  Level Denver Center
Sun 11:32:52 AM 41.5667 -105.1114 85° East 466 536 39,000  Level Denver Center
Sun 11:33:54 AM 41.5769 -104.9186 86° East 468 539 39,000  Level Denver Center
Sun 11:34:56 AM 41.5861 -104.7503 86° East 473 544 39,000  Level Denver Center
Sun 11:35:58 AM 41.5961 -104.5547 86° East 474 545 39,000  Level Denver Center
Sun 11:37:00 AM 41.6042 -104.3894 86° East 469 540 39,000  Level Denver Center
Sun 11:38:02 AM 41.6133 -104.1947 86° East 470 541 39,000  Level Denver Center
Sun 11:39:04 AM 41.6217 -104.0294 86° East 469 540 39,000  Level Denver Center
Sun 11:40:05 AM 41.6294 -103.8347 87° East 470 541 39,000  Level Denver Center
Sun 11:41:07 AM 41.6375 -103.6681 86° East 470 541 39,000  Level Denver Center
Sun 11:42:09 AM 41.6439 -103.5017 87° East 470 541 39,000  Level Denver Center
Sun 11:43:11 AM 41.6514 -103.3083 87° East 466 536 39,000  Level Denver Center
Sun 11:44:13 AM 41.6575 -103.1428 87° East 468 539 39,000  Level Denver Center
Sun 11:45:15 AM 41.6656 -102.9500 87° East 467 537 39,000  Level Denver Center
Sun 11:46:17 AM 41.6717 -102.7858 87° East 464 534 39,000  Level Denver Center
Sun 11:47:19 AM 41.6775 -102.5950 88° East 460 529 39,000  Level Denver Center
Sun 11:48:21 AM 41.6842 -102.4181 87° East 464 534 39,000  Level Denver Center
Sun 11:49:23 AM 41.6883 -102.2544 88° East 461 531 39,000  Level Denver Center
Sun 11:50:25 AM 41.6950 -102.0606 87° East 466 536 39,000  Level Denver Center
Sun 11:51:27 AM 41.6978 -101.8975 89° East 460 529 39,000  Level Denver Center
Sun 11:52:29 AM 41.7039 -101.7072 87° East 458 527 39,000  Level Denver Center
Sun 11:53:31 AM 41.7092 -101.5467 87° East 452 520 39,000  Level Denver Center
Sun 11:54:33 AM 41.7119 -101.3597 89° East 450 518 39,000  Level Denver Center
Sun 11:55:35 AM 41.7158 -101.1986 88° East 450 518 39,000  Level Denver Center
Sun 11:56:37 AM 41.7189 -101.0372 88° East 452 520 39,000  Level Denver Center
Sun 11:57:39 AM 41.7228 -100.8519 88° East 446 513 39,000  Level Denver Center
Sun 11:58:40 AM 41.7256 -100.6897 89° East 451 519 39,000  Level Denver Center
Sun 11:59:42 AM 41.7292 -100.5044 88° East 447 514 39,000  Level Denver Center
Sun 12:00:45 PM 41.7306 -100.3422 89° East 451 519 39,000  Level Denver Center
Sun 12:01:46 PM 41.7331 -100.1483 89° East 463 533 39,000  Level Denver Center
Sun 12:02:48 PM 41.7347 -100.0106 89° East 464 534 39,000  Level Denver Center
Sun 12:03:50 PM 41.7369 -99.7892 89° East 465 535 39,000  Level Denver Center
Sun 12:04:52 PM 41.7381 -99.6164 89° East 465 535 39,000  Level Denver Center
Sun 12:05:54 PM 41.7397 -99.4447 89° East 462 532 39,000  Level Denver Center
Sun 12:06:56 PM 41.7400 -99.2711 90° East 463 533 39,000  Level Denver Center
Sun 12:07:58 PM 41.7414 -99.0961 89° East 465 535 39,000  Level Denver Center
Sun 12:08:18 PM 41.7419 -99.0267 89° East 464 534 39,000  Level Minneapolis Center
Sun 12:09:20 PM 41.7419 -98.8506 90° East 468 539 39,000  Level Minneapolis Center
Sun 12:10:21 PM 41.7397 -98.6742 91° East 470 541 39,000  Level Minneapolis Center
Sun 12:11:23 PM 41.7336 -98.4989 93° East 469 540 39,000  Level Minneapolis Center
Sun 12:12:24 PM 41.7286 -98.3236 92° East 469 540 39,000  Level Minneapolis Center
Sun 12:13:26 PM 41.7242 -98.1492 92° East 468 539 39,000  Level Minneapolis Center
Sun 12:14:28 PM 41.7189 -97.9514 92° East 465 535 39,000  Level Minneapolis Center
Sun 12:15:29 PM 41.7125 -97.7786 93° East 465 535 39,000  Level Minneapolis Center
Sun 12:16:31 PM 41.7075 -97.6047 92° East 467 537 39,000  Level Minneapolis Center
Sun 12:17:33 PM 41.7017 -97.4325 93° East 466 536 39,000  Level Minneapolis Center
Sun 12:18:34 PM 41.6950 -97.2594 93° East 465 535 39,000  Level Minneapolis Center
Sun 12:19:36 PM 41.6900 -97.0867 92° East 466 536 39,000  Level Minneapolis Center
Sun 12:20:38 PM 41.6819 -96.9144 94° East 464 534 39,000  Level Minneapolis Center
Sun 12:21:39 PM 41.6764 -96.7411 92° East 465 535 39,000  Level Minneapolis Center
Sun 12:22:41 PM 41.6694 -96.5689 93° East 464 534 39,000  Level Minneapolis Center
Sun 12:23:43 PM 41.6600 -96.3608 93° East 465 535 39,000  Level Minneapolis Center
Sun 12:24:44 PM 41.6525 -96.1872 93° East 463 533 39,000  Level Minneapolis Center
Sun 12:25:46 PM 41.6428 -96.0058 94° East 466 536 39,000  Level Minneapolis Center
Sun 12:26:48 PM 41.6350 -95.8339 93° East 463 533 39,000  Level Minneapolis Center
Sun 12:27:49 PM 41.6264 -95.6619 94° East 462 532 39,000  Level Minneapolis Center
Sun 12:28:51 PM 41.6172 -95.4928 94° East 461 531 39,000  Level Minneapolis Center
Sun 12:29:53 PM 41.6083 -95.3197 94° East 460 529 39,000  Level Minneapolis Center
Sun 12:30:55 PM 41.6008 -95.1508 93° East 459 528 39,000  Level Minneapolis Center
Sun 12:31:56 PM 41.5903 -94.9808 95° East 459 528 39,000  Level Minneapolis Center
Sun 12:32:58 PM 41.5800 -94.8106 95° East 459 528 39,000  Level Minneapolis Center
Sun 12:34:00 PM 41.5667 -94.6064 95° East 460 529 39,000  Level Minneapolis Center
Sun 12:35:02 PM 41.5592 -94.4367 93° East 458 527 39,000  Level Minneapolis Center
Sun 12:36:03 PM 41.5475 -94.2658 95° East 460 529 39,000  Level Minneapolis Center
Sun 12:37:05 PM 41.5364 -94.0967 95° East 460 529 39,000  Level Minneapolis Center
Sun 12:38:07 PM 41.5272 -93.9628 95° East 459 528 39,000  Level Minneapolis Center
Sun 12:39:09 PM 41.5144 -93.7619 95° East 457 526 39,000  Level Minneapolis Center
Sun 12:40:11 PM 41.5031 -93.5953 95° East 454 522 39,000  Level Minneapolis Center
Sun 12:41:12 PM 41.4906 -93.4000 95° East 450 518 39,000 -195 Level Minneapolis Center
Sun 12:42:14 PM 41.4781 -93.2336 96° East 452 520 38,600 -677 Descending Minneapolis Center
Sun 12:43:16 PM 41.4669 -93.0683 95° East 451 519 37,600 -871 Descending Minneapolis Center
Sun 12:44:18 PM 41.4539 -92.9006 96° East 453 521 36,800 -878 Descending Minneapolis Center
Sun 12:45:19 PM 41.4425 -92.7317 95° East 458 527 35,800 -927 Descending Minneapolis Center
Sun 12:46:08 PM 41.4317 -92.5969 96° East 453 521 35,100 -919 Descending Chicago Center
Sun 12:47:10 PM 41.4181 -92.4311 96° East 453 521 34,100 -1,306 Descending Chicago Center
Sun 12:48:12 PM 41.4036 -92.2456 96° East 451 519 32,400 -1,839 Descending Chicago Center
Sun 12:49:14 PM 41.3906 -92.0797 96° East 455 524 30,300 -1,645 Descending Chicago Center
Sun 12:50:16 PM 41.3775 -91.9133 96° East 458 527 29,000 -629 Descending Chicago Center
Sun 12:51:18 PM 41.3603 -91.7178 97° East 446 513 29,000  Level Chicago Center
Sun 12:52:19 PM 41.3478 -91.5592 96° East 437 503 29,000  Level Chicago Center
Sun 12:53:21 PM 41.3331 -91.4017 97° East 436 502 29,000  Level Chicago Center
Sun 12:54:23 PM 41.3181 -91.2433 97° East 435 501 29,000  Level Chicago Center
Sun 12:55:25 PM 41.3056 -91.0828 96° East 436 502 29,000 -677 Level Chicago Center
Sun 12:56:27 PM 41.2911 -90.9253 97° East 431 496 27,600 -2,129 Descending Chicago Center
Sun 12:57:29 PM 41.2731 -90.7386 97° East 426 490 24,600 -2,098 Descending Chicago Center
Sun 12:58:30 PM 41.2603 -90.5875 96° East 415 478 23,300 -780 Descending Chicago Center
Sun 12:59:32 PM 41.2458 -90.4467 98° East 391 450 23,000 -145 Descending Chicago Center
Sun 01:00:34 PM 41.2317 -90.3008 97° East 397 457 23,000  Level Chicago Center
Sun 01:01:36 PM 41.2175 -90.1567 97° East 394 453 23,000 -629 Level Chicago Center
Sun 01:02:38 PM 41.2031 -90.0103 97° East 392 451 21,700 -1,756 Descending Chicago Center
Sun 01:03:39 PM 41.1892 -89.8667 97° East 395 455 19,400 -2,195 Descending Chicago Center
Sun 01:04:41 PM 41.1750 -89.7278 98° East 385 443 17,200 -2,129 Descending Chicago Center
Sun 01:05:43 PM 41.1606 -89.5656 97° East 369 425 15,000 -1,548 Descending Chicago Center
Sun 01:06:45 PM 41.1708 -89.4328 84° East 360 414 14,000 -968 Descending Chicago Center
Sun 01:07:47 PM 41.1806 -89.3025 84° East 354 407 13,000 -927 Descending Chicago Center
Sun 01:08:48 PM 41.1881 -89.1806 85° East 351 404 12,100 -780 Descending Chicago Center
Sun 01:09:50 PM 41.2342 -89.0719 61° Northeast 336 387 11,400 -532 Descending Chicago Center
Sun 01:10:52 PM 41.2875 -88.9381 62° Northeast 340 391 11,000 -726 Descending Chicago Center
Sun 01:11:54 PM 41.3350 -88.8258 61° Northeast 348 400 9,900 -878 Descending Chicago Center
Sun 01:12:55 PM 41.3758 -88.7272 61° Northeast 306 352 9,200 -878 Descending Chicago Center
Sun 01:13:57 PM 41.4158 -88.6350 60° Northeast 293 337 8,100 -1,306 Descending Chicago Center
Sun 01:14:59 PM 41.4517 -88.5461 62° Northeast 277 319 6,500 -1,016 Descending Chicago Center
Sun 01:16:01 PM 41.4875 -88.4603 61° Northeast 269 310 6,000 -242 Descending Chicago Center
Sun 01:17:03 PM 41.5208 -88.3786 61° Northeast 255 293 6,000 -532 Level Chicago Center
Sun 01:18:05 PM 41.5511 -88.2714 69° East 256 295 4,900 -976 Descending Chicago Center
Sun 01:19:06 PM 41.5764 -88.1817 69° East 256 295 4,000 -439 Descending Chicago Center
Sun 01:20:08 PM 41.6014 -88.0975 68° East 250 288 4,000  Level Chicago Center
Sun 01:21:10 PM 41.6228 -88.0200 70° East 235 270 4,000  Level Chicago Center
Sun 01:22:12 PM 41.6456 -87.9419 69° East 227 261 4,000 -290 Level Chicago Center
Sun 01:23:14 PM 41.6844 -87.8811 49° Northeast 226 260 3,400 -878 Descending Chicago Center
Sun 01:23:34 PM 41.7000 -87.8500 56° Northeast 196 226 2,800 -1,116 Descending Chicago TRACON
Sun 01:24:40 PM 41.7333 -87.8167 37° Northeast 153 176 1,800 -800 Descending Chicago TRACON
Sun 01:25:34 PM 41.7667 -87.7833 37° Northeast 134 154 1,200 -667 Descending Chicago TRACON

Login

Don't have an account? Register now (free) for customized features, flight alerts, and more!